sensor_id;sensor_type;location;lat;lon;timestamp;P1;durP1;ratioP1;P2;durP2;ratioP2
12663;SDS011;6396;58.490;15.528;2023-07-31T00:01:18;6.37;;;3.30;;
12663;SDS011;6396;58.490;15.528;2023-07-31T00:03:46;3.73;;;3.33;;
12663;SDS011;6396;58.490;15.528;2023-07-31T00:06:15;4.33;;;3.30;;
12663;SDS011;6396;58.490;15.528;2023-07-31T00:08:42;5.70;;;3.50;;
12663;SDS011;6396;58.490;15.528;2023-07-31T00:11:09;4.37;;;3.30;;
12663;SDS011;6396;58.490;15.528;2023-07-31T00:13:42;4.80;;;3.97;;
12663;SDS011;6396;58.490;15.528;2023-07-31T00:16:10;4.83;;;3.07;;
12663;SDS011;6396;58.490;15.528;2023-07-31T00:18:37;7.40;;;3.73;;
12663;SDS011;6396;58.490;15.528;2023-07-31T00:21:04;5.70;;;3.30;;
12663;SDS011;6396;58.490;15.528;2023-07-31T00:23:31;4.70;;;3.30;;
12663;SDS011;6396;58.490;15.528;2023-07-31T00:25:58;8.40;;;3.67;;
12663;SDS011;6396;58.490;15.528;2023-07-31T00:28:25;11.77;;;4.77;;
12663;SDS011;6396;58.490;15.528;2023-07-31T00:30:52;7.93;;;4.97;;
12663;SDS011;6396;58.490;15.528;2023-07-31T00:33:20;6.90;;;4.23;;
12663;SDS011;6396;58.490;15.528;2023-07-31T00:35:48;5.73;;;3.90;;
12663;SDS011;6396;58.490;15.528;2023-07-31T00:38:15;5.13;;;3.53;;
12663;SDS011;6396;58.490;15.528;2023-07-31T00:40:54;6.07;;;3.30;;
12663;SDS011;6396;58.490;15.528;2023-07-31T00:43:22;5.20;;;3.50;;
12663;SDS011;6396;58.490;15.528;2023-07-31T00:45:49;5.73;;;3.60;;
12663;SDS011;6396;58.490;15.528;2023-07-31T00:48:16;4.53;;;3.53;;
12663;SDS011;6396;58.490;15.528;2023-07-31T00:50:45;5.27;;;3.97;;
12663;SDS011;6396;58.490;15.528;2023-07-31T00:53:13;5.27;;;3.70;;
12663;SDS011;6396;58.490;15.528;2023-07-31T00:55:41;5.23;;;4.03;;
12663;SDS011;6396;58.490;15.528;2023-07-31T00:58:10;5.03;;;4.03;;
12663;SDS011;6396;58.490;15.528;2023-07-31T01:00:37;7.00;;;3.83;;
12663;SDS011;6396;58.490;15.528;2023-07-31T01:03:04;7.43;;;3.57;;
12663;SDS011;6396;58.490;15.528;2023-07-31T01:05:33;5.33;;;4.00;;
12663;SDS011;6396;58.490;15.528;2023-07-31T01:08:08;5.20;;;3.67;;
12663;SDS011;6396;58.490;15.528;2023-07-31T01:10:45;5.20;;;3.70;;
12663;SDS011;6396;58.490;15.528;2023-07-31T01:13:26;4.93;;;3.13;;
12663;SDS011;6396;58.490;15.528;2023-07-31T01:15:54;5.10;;;3.37;;
12663;SDS011;6396;58.490;15.528;2023-07-31T01:18:21;7.77;;;4.43;;
12663;SDS011;6396;58.490;15.528;2023-07-31T01:20:50;12.83;;;4.60;;
12663;SDS011;6396;58.490;15.528;2023-07-31T01:26:26;6.93;;;4.60;;
12663;SDS011;6396;58.490;15.528;2023-07-31T01:28:58;7.00;;;4.43;;
12663;SDS011;6396;58.490;15.528;2023-07-31T01:31:30;6.80;;;4.10;;
12663;SDS011;6396;58.490;15.528;2023-07-31T01:34:00;9.60;;;4.20;;
12663;SDS011;6396;58.490;15.528;2023-07-31T01:36:27;5.87;;;3.93;;
12663;SDS011;6396;58.490;15.528;2023-07-31T01:38:57;4.50;;;3.53;;
12663;SDS011;6396;58.490;15.528;2023-07-31T01:41:26;8.47;;;3.60;;
12663;SDS011;6396;58.490;15.528;2023-07-31T01:43:53;8.07;;;4.37;;
12663;SDS011;6396;58.490;15.528;2023-07-31T01:46:20;5.13;;;3.87;;
12663;SDS011;6396;58.490;15.528;2023-07-31T01:48:47;6.67;;;4.07;;
12663;SDS011;6396;58.490;15.528;2023-07-31T01:51:14;4.57;;;3.90;;
12663;SDS011;6396;58.490;15.528;2023-07-31T01:53:40;4.50;;;3.43;;
12663;SDS011;6396;58.490;15.528;2023-07-31T01:56:07;4.73;;;3.80;;
12663;SDS011;6396;58.490;15.528;2023-07-31T01:58:35;6.83;;;4.40;;
12663;SDS011;6396;58.490;15.528;2023-07-31T02:01:02;6.30;;;4.00;;
12663;SDS011;6396;58.490;15.528;2023-07-31T02:03:29;4.23;;;3.77;;
12663;SDS011;6396;58.490;15.528;2023-07-31T02:05:56;7.03;;;4.43;;
12663;SDS011;6396;58.490;15.528;2023-07-31T02:08:23;6.03;;;4.23;;
12663;SDS011;6396;58.490;15.528;2023-07-31T02:10:49;6.07;;;3.40;;
12663;SDS011;6396;58.490;15.528;2023-07-31T02:13:16;4.73;;;3.50;;
12663;SDS011;6396;58.490;15.528;2023-07-31T02:15:44;5.63;;;4.50;;
12663;SDS011;6396;58.490;15.528;2023-07-31T02:18:12;5.90;;;4.00;;
12663;SDS011;6396;58.490;15.528;2023-07-31T02:20:38;5.43;;;4.17;;
12663;SDS011;6396;58.490;15.528;2023-07-31T02:23:05;4.87;;;4.37;;
12663;SDS011;6396;58.490;15.528;2023-07-31T02:25:32;4.97;;;4.10;;
12663;SDS011;6396;58.490;15.528;2023-07-31T02:28:00;4.27;;;3.70;;
12663;SDS011;6396;58.490;15.528;2023-07-31T02:30:27;6.10;;;4.20;;
12663;SDS011;6396;58.490;15.528;2023-07-31T02:32:56;4.97;;;3.90;;
12663;SDS011;6396;58.490;15.528;2023-07-31T02:35:24;5.10;;;3.90;;
12663;SDS011;6396;58.490;15.528;2023-07-31T02:37:51;5.27;;;3.67;;
12663;SDS011;6396;58.490;15.528;2023-07-31T02:40:20;6.30;;;4.03;;
12663;SDS011;6396;58.490;15.528;2023-07-31T02:43:02;3.83;;;3.33;;
12663;SDS011;6396;58.490;15.528;2023-07-31T02:46:02;4.37;;;3.67;;
12663;SDS011;6396;58.490;15.528;2023-07-31T02:58:34;4.53;;;3.63;;
12663;SDS011;6396;58.490;15.528;2023-07-31T03:01:07;5.53;;;3.67;;
12663;SDS011;6396;58.490;15.528;2023-07-31T03:03:37;7.77;;;4.33;;
12663;SDS011;6396;58.490;15.528;2023-07-31T03:06:14;4.00;;;3.47;;
12663;SDS011;6396;58.490;15.528;2023-07-31T03:26:37;3.83;;;3.53;;
12663;SDS011;6396;58.490;15.528;2023-07-31T03:29:44;4.87;;;3.60;;
12663;SDS011;6396;58.490;15.528;2023-07-31T03:32:56;5.43;;;3.80;;
12663;SDS011;6396;58.490;15.528;2023-07-31T03:39:02;4.10;;;3.50;;
12663;SDS011;6396;58.490;15.528;2023-07-31T03:44:36;5.20;;;3.60;;
12663;SDS011;6396;58.490;15.528;2023-07-31T03:47:03;4.43;;;3.83;;
12663;SDS011;6396;58.490;15.528;2023-07-31T03:49:32;5.23;;;3.77;;
12663;SDS011;6396;58.490;15.528;2023-07-31T03:51:59;4.87;;;3.93;;
12663;SDS011;6396;58.490;15.528;2023-07-31T03:54:26;4.97;;;3.83;;
12663;SDS011;6396;58.490;15.528;2023-07-31T03:56:53;6.00;;;3.90;;
12663;SDS011;6396;58.490;15.528;2023-07-31T03:59:20;5.83;;;3.70;;
12663;SDS011;6396;58.490;15.528;2023-07-31T04:01:47;5.67;;;3.93;;
12663;SDS011;6396;58.490;15.528;2023-07-31T04:04:14;5.70;;;4.27;;
12663;SDS011;6396;58.490;15.528;2023-07-31T04:06:43;5.13;;;3.83;;
12663;SDS011;6396;58.490;15.528;2023-07-31T04:09:10;4.53;;;3.83;;
12663;SDS011;6396;58.490;15.528;2023-07-31T04:11:37;4.97;;;3.67;;
12663;SDS011;6396;58.490;15.528;2023-07-31T04:14:04;4.23;;;3.63;;
12663;SDS011;6396;58.490;15.528;2023-07-31T04:16:31;5.00;;;3.80;;
12663;SDS011;6396;58.490;15.528;2023-07-31T04:18:58;6.97;;;3.53;;
12663;SDS011;6396;58.490;15.528;2023-07-31T04:21:25;6.63;;;3.90;;
12663;SDS011;6396;58.490;15.528;2023-07-31T04:23:53;4.10;;;3.33;;
12663;SDS011;6396;58.490;15.528;2023-07-31T04:26:21;4.20;;;3.67;;
12663;SDS011;6396;58.490;15.528;2023-07-31T04:28:48;4.20;;;3.50;;
12663;SDS011;6396;58.490;15.528;2023-07-31T04:31:14;4.30;;;3.73;;
12663;SDS011;6396;58.490;15.528;2023-07-31T04:33:41;5.63;;;4.03;;
12663;SDS011;6396;58.490;15.528;2023-07-31T04:36:08;5.10;;;3.67;;
12663;SDS011;6396;58.490;15.528;2023-07-31T04:38:35;7.40;;;3.80;;
12663;SDS011;6396;58.490;15.528;2023-07-31T04:41:04;4.30;;;3.87;;
12663;SDS011;6396;58.490;15.528;2023-07-31T04:43:31;4.13;;;3.13;;
12663;SDS011;6396;58.490;15.528;2023-07-31T04:45:58;6.77;;;3.53;;
12663;SDS011;6396;58.490;15.528;2023-07-31T04:48:25;7.53;;;3.43;;
12663;SDS011;6396;58.490;15.528;2023-07-31T04:50:52;4.13;;;3.37;;
12663;SDS011;6396;58.490;15.528;2023-07-31T04:53:19;4.00;;;3.57;;
12663;SDS011;6396;58.490;15.528;2023-07-31T04:55:46;4.70;;;3.40;;
12663;SDS011;6396;58.490;15.528;2023-07-31T04:58:15;4.90;;;3.37;;
12663;SDS011;6396;58.490;15.528;2023-07-31T05:00:41;3.63;;;3.00;;
12663;SDS011;6396;58.490;15.528;2023-07-31T05:03:09;4.43;;;3.67;;
12663;SDS011;6396;58.490;15.528;2023-07-31T05:05:36;4.73;;;3.37;;
12663;SDS011;6396;58.490;15.528;2023-07-31T05:08:03;4.23;;;3.50;;
12663;SDS011;6396;58.490;15.528;2023-07-31T05:10:30;4.23;;;3.50;;
12663;SDS011;6396;58.490;15.528;2023-07-31T05:12:58;4.27;;;3.30;;
12663;SDS011;6396;58.490;15.528;2023-07-31T05:15:27;4.40;;;3.63;;
12663;SDS011;6396;58.490;15.528;2023-07-31T05:17:54;4.30;;;3.57;;
12663;SDS011;6396;58.490;15.528;2023-07-31T05:20:21;4.67;;;3.73;;
12663;SDS011;6396;58.490;15.528;2023-07-31T05:22:48;4.33;;;3.20;;
12663;SDS011;6396;58.490;15.528;2023-07-31T05:25:15;5.60;;;3.23;;
12663;SDS011;6396;58.490;15.528;2023-07-31T05:27:42;4.17;;;3.80;;
12663;SDS011;6396;58.490;15.528;2023-07-31T05:30:09;5.97;;;3.40;;
12663;SDS011;6396;58.490;15.528;2023-07-31T05:32:37;4.77;;;3.70;;
12663;SDS011;6396;58.490;15.528;2023-07-31T05:35:05;5.63;;;3.60;;
12663;SDS011;6396;58.490;15.528;2023-07-31T05:37:32;4.20;;;3.80;;
12663;SDS011;6396;58.490;15.528;2023-07-31T05:39:59;4.13;;;3.70;;
12663;SDS011;6396;58.490;15.528;2023-07-31T05:42:26;4.63;;;3.70;;
12663;SDS011;6396;58.490;15.528;2023-07-31T05:44:53;4.20;;;3.80;;
12663;SDS011;6396;58.490;15.528;2023-07-31T05:47:19;3.93;;;3.43;;
12663;SDS011;6396;58.490;15.528;2023-07-31T05:49:48;4.43;;;3.60;;
12663;SDS011;6396;58.490;15.528;2023-07-31T05:52:17;7.07;;;3.60;;
12663;SDS011;6396;58.490;15.528;2023-07-31T05:54:44;4.87;;;3.40;;
12663;SDS011;6396;58.490;15.528;2023-07-31T05:57:12;3.73;;;3.37;;
12663;SDS011;6396;58.490;15.528;2023-07-31T05:59:39;3.87;;;3.50;;
12663;SDS011;6396;58.490;15.528;2023-07-31T06:02:06;5.57;;;3.47;;
12663;SDS011;6396;58.490;15.528;2023-07-31T06:04:33;3.60;;;3.30;;
12663;SDS011;6396;58.490;15.528;2023-07-31T06:07:01;4.40;;;3.03;;
12663;SDS011;6396;58.490;15.528;2023-07-31T06:09:30;5.87;;;3.20;;
12663;SDS011;6396;58.490;15.528;2023-07-31T06:11:57;3.97;;;3.10;;
12663;SDS011;6396;58.490;15.528;2023-07-31T06:25:14;7.67;;;3.33;;
12663;SDS011;6396;58.490;15.528;2023-07-31T06:27:42;4.60;;;3.27;;
12663;SDS011;6396;58.490;15.528;2023-07-31T06:30:10;2.90;;;2.60;;
12663;SDS011;6396;58.490;15.528;2023-07-31T06:32:37;6.83;;;3.80;;
12663;SDS011;6396;58.490;15.528;2023-07-31T06:35:05;4.03;;;3.40;;
12663;SDS011;6396;58.490;15.528;2023-07-31T06:37:34;6.20;;;3.50;;
12663;SDS011;6396;58.490;15.528;2023-07-31T06:40:00;4.93;;;3.17;;
12663;SDS011;6396;58.490;15.528;2023-07-31T06:42:29;4.47;;;3.30;;
12663;SDS011;6396;58.490;15.528;2023-07-31T06:44:57;3.60;;;3.07;;
12663;SDS011;6396;58.490;15.528;2023-07-31T06:47:31;5.73;;;2.80;;
12663;SDS011;6396;58.490;15.528;2023-07-31T06:50:07;3.47;;;3.10;;
12663;SDS011;6396;58.490;15.528;2023-07-31T06:52:34;4.23;;;3.37;;
12663;SDS011;6396;58.490;15.528;2023-07-31T06:55:02;5.57;;;3.80;;
12663;SDS011;6396;58.490;15.528;2023-07-31T06:57:31;4.53;;;3.57;;
12663;SDS011;6396;58.490;15.528;2023-07-31T06:59:58;4.23;;;3.10;;
12663;SDS011;6396;58.490;15.528;2023-07-31T07:02:25;4.43;;;3.40;;
12663;SDS011;6396;58.490;15.528;2023-07-31T07:04:52;4.03;;;3.10;;
12663;SDS011;6396;58.490;15.528;2023-07-31T07:07:19;5.77;;;3.37;;
12663;SDS011;6396;58.490;15.528;2023-07-31T07:09:45;4.50;;;3.30;;
12663;SDS011;6396;58.490;15.528;2023-07-31T07:12:12;4.03;;;3.07;;
12663;SDS011;6396;58.490;15.528;2023-07-31T07:14:40;4.47;;;3.33;;
12663;SDS011;6396;58.490;15.528;2023-07-31T07:17:07;3.93;;;3.13;;
12663;SDS011;6396;58.490;15.528;2023-07-31T07:19:34;5.50;;;3.13;;
12663;SDS011;6396;58.490;15.528;2023-07-31T07:22:01;5.33;;;3.03;;
12663;SDS011;6396;58.490;15.528;2023-07-31T07:24:28;4.70;;;3.50;;
12663;SDS011;6396;58.490;15.528;2023-07-31T07:26:57;4.43;;;3.17;;
12663;SDS011;6396;58.490;15.528;2023-07-31T07:29:24;4.27;;;3.07;;
12663;SDS011;6396;58.490;15.528;2023-07-31T07:31:52;3.97;;;2.40;;
12663;SDS011;6396;58.490;15.528;2023-07-31T07:34:19;5.70;;;2.63;;
12663;SDS011;6396;58.490;15.528;2023-07-31T07:36:48;3.43;;;2.63;;
12663;SDS011;6396;58.490;15.528;2023-07-31T07:39:15;6.33;;;3.13;;
12663;SDS011;6396;58.490;15.528;2023-07-31T07:41:42;4.97;;;2.50;;
12663;SDS011;6396;58.490;15.528;2023-07-31T07:44:09;2.80;;;2.40;;
12663;SDS011;6396;58.490;15.528;2023-07-31T07:46:35;3.77;;;2.10;;
12663;SDS011;6396;58.490;15.528;2023-07-31T07:49:07;4.13;;;2.30;;
12663;SDS011;6396;58.490;15.528;2023-07-31T07:51:34;3.27;;;2.20;;
12663;SDS011;6396;58.490;15.528;2023-07-31T07:54:01;2.13;;;1.93;;
12663;SDS011;6396;58.490;15.528;2023-07-31T07:56:27;4.90;;;2.17;;
12663;SDS011;6396;58.490;15.528;2023-07-31T07:58:54;3.63;;;2.40;;
12663;SDS011;6396;58.490;15.528;2023-07-31T08:01:32;3.87;;;2.57;;
12663;SDS011;6396;58.490;15.528;2023-07-31T08:04:00;2.70;;;2.47;;
12663;SDS011;6396;58.490;15.528;2023-07-31T08:06:28;2.53;;;2.30;;
12663;SDS011;6396;58.490;15.528;2023-07-31T08:08:56;3.80;;;2.00;;
12663;SDS011;6396;58.490;15.528;2023-07-31T08:11:24;3.67;;;2.37;;
12663;SDS011;6396;58.490;15.528;2023-07-31T08:13:50;5.60;;;2.57;;
12663;SDS011;6396;58.490;15.528;2023-07-31T08:16:17;2.30;;;2.07;;
12663;SDS011;6396;58.490;15.528;2023-07-31T08:18:44;4.53;;;2.53;;
12663;SDS011;6396;58.490;15.528;2023-07-31T08:21:11;4.10;;;2.10;;
12663;SDS011;6396;58.490;15.528;2023-07-31T08:23:40;4.53;;;2.20;;
12663;SDS011;6396;58.490;15.528;2023-07-31T08:26:07;4.17;;;2.60;;
12663;SDS011;6396;58.490;15.528;2023-07-31T08:28:33;4.50;;;2.77;;
12663;SDS011;6396;58.490;15.528;2023-07-31T08:31:01;5.00;;;2.77;;
12663;SDS011;6396;58.490;15.528;2023-07-31T08:33:28;2.70;;;2.20;;
12663;SDS011;6396;58.490;15.528;2023-07-31T08:35:55;4.87;;;2.30;;
12663;SDS011;6396;58.490;15.528;2023-07-31T08:38:22;4.07;;;2.30;;
12663;SDS011;6396;58.490;15.528;2023-07-31T08:40:57;3.17;;;1.93;;
12663;SDS011;6396;58.490;15.528;2023-07-31T08:43:25;5.03;;;2.70;;
12663;SDS011;6396;58.490;15.528;2023-07-31T08:45:55;2.53;;;2.23;;
12663;SDS011;6396;58.490;15.528;2023-07-31T08:48:34;3.67;;;2.30;;
12663;SDS011;6396;58.490;15.528;2023-07-31T08:51:03;3.87;;;2.23;;
12663;SDS011;6396;58.490;15.528;2023-07-31T08:53:30;4.33;;;2.47;;
12663;SDS011;6396;58.490;15.528;2023-07-31T08:55:58;3.70;;;2.60;;
12663;SDS011;6396;58.490;15.528;2023-07-31T08:58:26;3.20;;;2.20;;
12663;SDS011;6396;58.490;15.528;2023-07-31T09:00:56;3.37;;;2.50;;
12663;SDS011;6396;58.490;15.528;2023-07-31T09:03:25;4.20;;;2.77;;
12663;SDS011;6396;58.490;15.528;2023-07-31T09:05:52;4.97;;;2.67;;
12663;SDS011;6396;58.490;15.528;2023-07-31T09:08:21;5.03;;;2.37;;
12663;SDS011;6396;58.490;15.528;2023-07-31T09:10:48;2.47;;;2.10;;
12663;SDS011;6396;58.490;15.528;2023-07-31T09:13:17;6.40;;;2.23;;
12663;SDS011;6396;58.490;15.528;2023-07-31T09:15:44;3.23;;;2.37;;
12663;SDS011;6396;58.490;15.528;2023-07-31T09:18:12;3.23;;;2.10;;
12663;SDS011;6396;58.490;15.528;2023-07-31T09:20:43;4.87;;;2.60;;
12663;SDS011;6396;58.490;15.528;2023-07-31T09:23:11;6.00;;;2.60;;
12663;SDS011;6396;58.490;15.528;2023-07-31T09:25:43;2.40;;;2.20;;
12663;SDS011;6396;58.490;15.528;2023-07-31T09:28:10;2.90;;;2.10;;
12663;SDS011;6396;58.490;15.528;2023-07-31T09:30:46;2.70;;;1.90;;
12663;SDS011;6396;58.490;15.528;2023-07-31T09:33:14;5.17;;;2.60;;
12663;SDS011;6396;58.490;15.528;2023-07-31T09:35:41;2.57;;;2.30;;
12663;SDS011;6396;58.490;15.528;2023-07-31T09:38:09;2.87;;;2.00;;
12663;SDS011;6396;58.490;15.528;2023-07-31T09:40:38;2.97;;;2.10;;
12663;SDS011;6396;58.490;15.528;2023-07-31T09:43:06;3.77;;;2.10;;
12663;SDS011;6396;58.490;15.528;2023-07-31T09:45:36;3.70;;;2.30;;
12663;SDS011;6396;58.490;15.528;2023-07-31T09:48:08;3.63;;;1.97;;
12663;SDS011;6396;58.490;15.528;2023-07-31T09:50:36;3.70;;;2.10;;
12663;SDS011;6396;58.490;15.528;2023-07-31T09:53:04;3.27;;;2.10;;
12663;SDS011;6396;58.490;15.528;2023-07-31T09:55:31;4.33;;;2.27;;
12663;SDS011;6396;58.490;15.528;2023-07-31T09:57:59;2.83;;;2.30;;
12663;SDS011;6396;58.490;15.528;2023-07-31T10:00:30;2.77;;;2.10;;
12663;SDS011;6396;58.490;15.528;2023-07-31T10:02:58;3.53;;;2.00;;
12663;SDS011;6396;58.490;15.528;2023-07-31T10:05:30;3.20;;;2.60;;
12663;SDS011;6396;58.490;15.528;2023-07-31T10:08:00;3.83;;;2.13;;
12663;SDS011;6396;58.490;15.528;2023-07-31T10:10:27;4.10;;;2.53;;
12663;SDS011;6396;58.490;15.528;2023-07-31T10:12:56;4.73;;;2.53;;
12663;SDS011;6396;58.490;15.528;2023-07-31T10:15:23;3.30;;;2.20;;
12663;SDS011;6396;58.490;15.528;2023-07-31T10:17:52;4.20;;;1.80;;
12663;SDS011;6396;58.490;15.528;2023-07-31T10:20:21;2.63;;;2.10;;
12663;SDS011;6396;58.490;15.528;2023-07-31T10:22:49;2.57;;;2.20;;
12663;SDS011;6396;58.490;15.528;2023-07-31T10:25:17;4.07;;;2.80;;
12663;SDS011;6396;58.490;15.528;2023-07-31T10:27:46;4.60;;;2.63;;
12663;SDS011;6396;58.490;15.528;2023-07-31T10:30:14;3.73;;;2.17;;
12663;SDS011;6396;58.490;15.528;2023-07-31T10:32:43;3.37;;;2.10;;
12663;SDS011;6396;58.490;15.528;2023-07-31T10:35:12;5.73;;;2.80;;
12663;SDS011;6396;58.490;15.528;2023-07-31T10:37:39;2.90;;;2.30;;
12663;SDS011;6396;58.490;15.528;2023-07-31T10:40:10;4.27;;;2.40;;
12663;SDS011;6396;58.490;15.528;2023-07-31T10:42:44;6.67;;;2.20;;
12663;SDS011;6396;58.490;15.528;2023-07-31T10:45:13;5.03;;;2.17;;
12663;SDS011;6396;58.490;15.528;2023-07-31T10:47:42;3.43;;;2.70;;
12663;SDS011;6396;58.490;15.528;2023-07-31T10:50:16;3.97;;;2.20;;
12663;SDS011;6396;58.490;15.528;2023-07-31T10:52:48;6.77;;;2.30;;
12663;SDS011;6396;58.490;15.528;2023-07-31T10:55:25;6.30;;;2.23;;
12663;SDS011;6396;58.490;15.528;2023-07-31T10:57:57;3.07;;;2.00;;
12663;SDS011;6396;58.490;15.528;2023-07-31T11:00:31;3.17;;;2.10;;
12663;SDS011;6396;58.490;15.528;2023-07-31T11:02:58;4.63;;;2.33;;
12663;SDS011;6396;58.490;15.528;2023-07-31T11:05:40;2.33;;;1.70;;
12663;SDS011;6396;58.490;15.528;2023-07-31T11:08:19;4.93;;;2.17;;
12663;SDS011;6396;58.490;15.528;2023-07-31T11:10:50;2.67;;;2.13;;
12663;SDS011;6396;58.490;15.528;2023-07-31T11:13:31;5.00;;;2.20;;
12663;SDS011;6396;58.490;15.528;2023-07-31T11:15:59;3.20;;;2.00;;
12663;SDS011;6396;58.490;15.528;2023-07-31T11:18:26;3.20;;;1.90;;
12663;SDS011;6396;58.490;15.528;2023-07-31T11:20:53;2.63;;;1.70;;
12663;SDS011;6396;58.490;15.528;2023-07-31T11:23:21;2.50;;;1.93;;
12663;SDS011;6396;58.490;15.528;2023-07-31T11:25:50;6.07;;;2.10;;
12663;SDS011;6396;58.490;15.528;2023-07-31T11:28:18;3.60;;;2.03;;
12663;SDS011;6396;58.490;15.528;2023-07-31T11:30:46;3.20;;;1.83;;
12663;SDS011;6396;58.490;15.528;2023-07-31T11:33:13;2.70;;;1.73;;
12663;SDS011;6396;58.490;15.528;2023-07-31T11:35:41;3.07;;;2.20;;
12663;SDS011;6396;58.490;15.528;2023-07-31T11:38:10;4.23;;;2.23;;
12663;SDS011;6396;58.490;15.528;2023-07-31T11:40:40;1.90;;;1.70;;
12663;SDS011;6396;58.490;15.528;2023-07-31T11:43:10;3.17;;;1.93;;
12663;SDS011;6396;58.490;15.528;2023-07-31T11:45:41;5.60;;;2.00;;
12663;SDS011;6396;58.490;15.528;2023-07-31T11:48:13;3.13;;;1.80;;
12663;SDS011;6396;58.490;15.528;2023-07-31T11:50:45;1.90;;;1.60;;
12663;SDS011;6396;58.490;15.528;2023-07-31T11:53:12;2.90;;;1.70;;
12663;SDS011;6396;58.490;15.528;2023-07-31T11:55:39;3.57;;;1.73;;
12663;SDS011;6396;58.490;15.528;2023-07-31T11:58:06;2.60;;;1.70;;
12663;SDS011;6396;58.490;15.528;2023-07-31T12:00:36;1.87;;;1.60;;
12663;SDS011;6396;58.490;15.528;2023-07-31T12:03:02;2.80;;;1.60;;
12663;SDS011;6396;58.490;15.528;2023-07-31T12:05:29;3.10;;;1.93;;
12663;SDS011;6396;58.490;15.528;2023-07-31T12:07:56;3.67;;;1.80;;
12663;SDS011;6396;58.490;15.528;2023-07-31T12:10:24;2.73;;;1.80;;
12663;SDS011;6396;58.490;15.528;2023-07-31T12:12:56;2.40;;;1.70;;
12663;SDS011;6396;58.490;15.528;2023-07-31T12:15:28;2.47;;;1.53;;
12663;SDS011;6396;58.490;15.528;2023-07-31T12:17:58;2.60;;;1.83;;
12663;SDS011;6396;58.490;15.528;2023-07-31T12:20:25;2.77;;;2.10;;
12663;SDS011;6396;58.490;15.528;2023-07-31T12:22:52;2.87;;;1.70;;
12663;SDS011;6396;58.490;15.528;2023-07-31T12:25:28;3.17;;;1.90;;
12663;SDS011;6396;58.490;15.528;2023-07-31T12:27:55;3.30;;;1.87;;
12663;SDS011;6396;58.490;15.528;2023-07-31T12:30:26;3.83;;;2.10;;
12663;SDS011;6396;58.490;15.528;2023-07-31T12:32:54;2.77;;;2.00;;
12663;SDS011;6396;58.490;15.528;2023-07-31T12:35:22;3.83;;;2.20;;
12663;SDS011;6396;58.490;15.528;2023-07-31T12:37:49;4.27;;;1.80;;
12663;SDS011;6396;58.490;15.528;2023-07-31T12:40:16;2.70;;;1.70;;
12663;SDS011;6396;58.490;15.528;2023-07-31T12:42:43;2.23;;;1.83;;
12663;SDS011;6396;58.490;15.528;2023-07-31T12:45:09;3.23;;;2.10;;
12663;SDS011;6396;58.490;15.528;2023-07-31T12:47:36;2.87;;;1.60;;
12663;SDS011;6396;58.490;15.528;2023-07-31T12:50:03;1.57;;;1.47;;
12663;SDS011;6396;58.490;15.528;2023-07-31T12:52:32;1.70;;;1.40;;
12663;SDS011;6396;58.490;15.528;2023-07-31T12:54:59;2.53;;;1.50;;
12663;SDS011;6396;58.490;15.528;2023-07-31T12:57:26;2.70;;;1.50;;
12663;SDS011;6396;58.490;15.528;2023-07-31T12:59:53;2.00;;;1.50;;
12663;SDS011;6396;58.490;15.528;2023-07-31T13:02:20;2.10;;;1.43;;
12663;SDS011;6396;58.490;15.528;2023-07-31T13:04:46;3.30;;;1.80;;
12663;SDS011;6396;58.490;15.528;2023-07-31T13:07:13;2.23;;;1.30;;
12663;SDS011;6396;58.490;15.528;2023-07-31T13:09:41;1.97;;;1.70;;
12663;SDS011;6396;58.490;15.528;2023-07-31T13:12:08;4.33;;;1.87;;
12663;SDS011;6396;58.490;15.528;2023-07-31T13:14:35;2.47;;;1.80;;
12663;SDS011;6396;58.490;15.528;2023-07-31T13:17:03;2.43;;;1.30;;
12663;SDS011;6396;58.490;15.528;2023-07-31T13:19:30;3.70;;;1.47;;
12663;SDS011;6396;58.490;15.528;2023-07-31T13:21:57;2.40;;;1.80;;
12663;SDS011;6396;58.490;15.528;2023-07-31T13:24:24;2.80;;;1.67;;
12663;SDS011;6396;58.490;15.528;2023-07-31T13:26:52;3.40;;;1.60;;
12663;SDS011;6396;58.490;15.528;2023-07-31T13:29:18;2.50;;;1.40;;
12663;SDS011;6396;58.490;15.528;2023-07-31T13:31:46;3.97;;;1.73;;
12663;SDS011;6396;58.490;15.528;2023-07-31T13:34:13;4.57;;;1.83;;
12663;SDS011;6396;58.490;15.528;2023-07-31T13:36:40;1.97;;;1.50;;
12663;SDS011;6396;58.490;15.528;2023-07-31T13:39:07;3.53;;;1.40;;
12663;SDS011;6396;58.490;15.528;2023-07-31T13:41:34;2.13;;;1.77;;
12663;SDS011;6396;58.490;15.528;2023-07-31T13:44:02;2.23;;;1.37;;
12663;SDS011;6396;58.490;15.528;2023-07-31T13:46:29;3.13;;;1.70;;
12663;SDS011;6396;58.490;15.528;2023-07-31T13:48:57;2.53;;;1.40;;
12663;SDS011;6396;58.490;15.528;2023-07-31T13:51:24;2.40;;;1.33;;
12663;SDS011;6396;58.490;15.528;2023-07-31T13:53:52;3.23;;;1.60;;
12663;SDS011;6396;58.490;15.528;2023-07-31T13:56:19;2.67;;;1.67;;
12663;SDS011;6396;58.490;15.528;2023-07-31T13:58:46;2.10;;;1.57;;
12663;SDS011;6396;58.490;15.528;2023-07-31T14:01:14;3.83;;;1.70;;
12663;SDS011;6396;58.490;15.528;2023-07-31T14:03:41;1.70;;;1.60;;
12663;SDS011;6396;58.490;15.528;2023-07-31T14:06:08;1.77;;;1.43;;
12663;SDS011;6396;58.490;15.528;2023-07-31T14:08:35;2.30;;;1.60;;
12663;SDS011;6396;58.490;15.528;2023-07-31T14:11:01;3.53;;;1.80;;
12663;SDS011;6396;58.490;15.528;2023-07-31T14:13:37;3.53;;;1.40;;
12663;SDS011;6396;58.490;15.528;2023-07-31T14:16:04;3.27;;;1.67;;
12663;SDS011;6396;58.490;15.528;2023-07-31T14:18:33;2.00;;;1.50;;
12663;SDS011;6396;58.490;15.528;2023-07-31T14:20:59;2.37;;;1.70;;
12663;SDS011;6396;58.490;15.528;2023-07-31T14:23:26;2.97;;;1.87;;
12663;SDS011;6396;58.490;15.528;2023-07-31T14:25:53;3.13;;;1.93;;
12663;SDS011;6396;58.490;15.528;2023-07-31T14:28:20;2.60;;;1.30;;
12663;SDS011;6396;58.490;15.528;2023-07-31T14:30:47;3.27;;;1.40;;
12663;SDS011;6396;58.490;15.528;2023-07-31T14:33:13;3.47;;;1.40;;
12663;SDS011;6396;58.490;15.528;2023-07-31T14:35:42;2.30;;;1.40;;
12663;SDS011;6396;58.490;15.528;2023-07-31T14:38:08;1.43;;;1.13;;
12663;SDS011;6396;58.490;15.528;2023-07-31T14:40:35;2.33;;;1.00;;
12663;SDS011;6396;58.490;15.528;2023-07-31T14:43:03;1.50;;;0.97;;
12663;SDS011;6396;58.490;15.528;2023-07-31T14:45:30;2.00;;;1.20;;
12663;SDS011;6396;58.490;15.528;2023-07-31T14:47:57;0.77;;;0.77;;
12663;SDS011;6396;58.490;15.528;2023-07-31T14:50:24;0.70;;;0.70;;
12663;SDS011;6396;58.490;15.528;2023-07-31T14:52:53;1.33;;;0.70;;
12663;SDS011;6396;58.490;15.528;2023-07-31T14:55:20;1.37;;;0.90;;
12663;SDS011;6396;58.490;15.528;2023-07-31T14:57:47;1.47;;;1.00;;
12663;SDS011;6396;58.490;15.528;2023-07-31T15:00:14;1.50;;;1.20;;
12663;SDS011;6396;58.490;15.528;2023-07-31T15:02:41;1.20;;;1.10;;
12663;SDS011;6396;58.490;15.528;2023-07-31T15:05:08;2.93;;;1.00;;
12663;SDS011;6396;58.490;15.528;2023-07-31T15:07:35;1.13;;;1.00;;
12663;SDS011;6396;58.490;15.528;2023-07-31T15:10:05;1.30;;;1.10;;
12663;SDS011;6396;58.490;15.528;2023-07-31T15:12:33;1.07;;;0.90;;
12663;SDS011;6396;58.490;15.528;2023-07-31T15:14:59;1.40;;;1.00;;
12663;SDS011;6396;58.490;15.528;2023-07-31T15:17:26;1.20;;;1.10;;
12663;SDS011;6396;58.490;15.528;2023-07-31T15:19:55;1.10;;;1.03;;
12663;SDS011;6396;58.490;15.528;2023-07-31T15:22:21;1.23;;;1.10;;
12663;SDS011;6396;58.490;15.528;2023-07-31T15:24:49;0.80;;;0.80;;
12663;SDS011;6396;58.490;15.528;2023-07-31T15:27:18;1.40;;;1.07;;
12663;SDS011;6396;58.490;15.528;2023-07-31T15:29:45;1.10;;;1.00;;
12663;SDS011;6396;58.490;15.528;2023-07-31T15:32:11;0.90;;;0.90;;
12663;SDS011;6396;58.490;15.528;2023-07-31T15:34:38;1.00;;;0.90;;
12663;SDS011;6396;58.490;15.528;2023-07-31T15:37:05;1.07;;;1.00;;
12663;SDS011;6396;58.490;15.528;2023-07-31T15:39:32;1.20;;;1.10;;
12663;SDS011;6396;58.490;15.528;2023-07-31T15:41:58;1.10;;;1.00;;
12663;SDS011;6396;58.490;15.528;2023-07-31T15:44:27;1.43;;;1.10;;